Time;durP1;ratioP1;P1;durP2;ratioP2;P2;SDS_P1;SDS_P2;PMS_P1;PMS_P2;Temp;Humidity;BMP_temperature;BMP_pressure;BME280_temperature;BME280_humidity;BME280_pressure;Samples;Min_cycle;Max_cycle;Signal;HPM_P1;HPM_P2
2021/09/13 00:01:03;;;;;;;4.90;4.50;;;20.80;99.90;;;;;;5006837;28;20196;-61
2021/09/13 00:03:29;;;;;;;5.03;4.53;;;20.50;99.90;;;;;;5004907;28;20299;-62
2021/09/13 00:05:54;;;;;;;4.67;4.27;;;20.40;99.90;;;;;;5003568;28;20242;-58
2021/09/13 00:08:20;;;;;;;4.73;4.30;;;20.70;99.90;;;;;;5007291;28;20264;-58
2021/09/13 00:10:46;;;;;;;5.00;4.40;;;20.80;99.90;;;;;;5006789;28;20793;-58
2021/09/13 00:13:12;;;;;;;5.67;5.20;;;20.90;99.90;;;;;;5003180;28;20212;-58
2021/09/13 00:15:38;;;;;;;4.73;4.23;;;20.80;99.90;;;;;;5006577;28;20428;-58
2021/09/13 00:18:04;;;;;;;5.27;4.77;;;20.30;99.90;;;;;;5005761;28;20631;-58
2021/09/13 00:20:29;;;;;;;4.20;3.80;;;19.90;99.90;;;;;;5007561;28;20919;-58
2021/09/13 00:22:55;;;;;;;5.23;4.73;;;20.00;99.90;;;;;;5006058;28;20219;-62
2021/09/13 00:25:20;;;;;;;4.70;4.30;;;20.30;99.90;;;;;;5004311;28;20201;-62
2021/09/13 00:27:47;;;;;;;5.13;4.50;;;20.50;99.90;;;;;;5005574;28;20350;-58
2021/09/13 00:30:13;;;;;;;4.33;3.93;;;20.60;99.90;;;;;;5008971;28;20204;-58
2021/09/13 00:32:38;;;;;;;6.47;4.80;;;20.60;99.90;;;;;;5005269;28;20424;-58
2021/09/13 00:35:05;;;;;;;5.03;4.63;;;20.70;99.90;;;;;;5005320;28;20431;-58
2021/09/13 00:37:30;;;;;;;4.47;4.07;;;20.80;99.90;;;;;;5006003;28;20205;-58
2021/09/13 00:39:56;;;;;;;5.33;4.60;;;20.80;99.90;;;;;;5005388;28;20436;-62
2021/09/13 00:42:22;;;;;;;6.80;4.20;;;20.70;99.90;;;;;;5006478;28;20189;-63
2021/09/13 00:44:48;;;;;;;6.67;4.83;;;20.60;99.90;;;;;;5004515;28;20213;-63
2021/09/13 00:47:13;;;;;;;4.73;3.90;;;20.60;99.90;;;;;;5008701;28;20292;-59
2021/09/13 00:49:39;;;;;;;4.83;4.33;;;20.60;99.90;;;;;;5010665;28;20193;-59
2021/09/13 00:52:05;;;;;;;6.20;4.53;;;20.70;99.90;;;;;;5009033;28;20204;-62
2021/09/13 00:54:31;;;;;;;5.23;4.43;;;20.70;99.90;;;;;;5009883;28;20251;-62
2021/09/13 00:56:57;;;;;;;4.80;4.37;;;20.70;99.90;;;;;;5010273;28;20495;-63
2021/09/13 00:59:23;;;;;;;5.50;5.00;;;20.70;99.90;;;;;;5006993;28;20193;-63
2021/09/13 01:01:49;;;;;;;4.50;4.10;;;20.50;99.90;;;;;;5008481;28;20208;-63
2021/09/13 01:04:14;;;;;;;4.83;4.23;;;20.50;99.90;;;;;;5008409;28;20888;-63
2021/09/13 01:06:40;;;;;;;4.27;3.87;;;20.50;99.90;;;;;;5010959;28;20228;-63
2021/09/13 01:09:06;;;;;;;4.47;3.83;;;20.20;99.90;;;;;;5008682;28;20430;-63
2021/09/13 01:11:32;;;;;;;4.60;4.20;;;20.30;99.90;;;;;;5008806;28;20185;-63
2021/09/13 01:13:58;;;;;;;4.77;4.33;;;20.30;99.90;;;;;;5007851;28;20315;-63
2021/09/13 01:16:24;;;;;;;6.20;4.10;;;20.20;99.90;;;;;;5007947;28;20517;-63
2021/09/13 01:18:49;;;;;;;4.87;4.27;;;20.20;99.90;;;;;;5007770;28;20553;-59
2021/09/13 01:21:16;;;;;;;4.27;3.87;;;20.30;99.90;;;;;;5010279;28;20193;-59
2021/09/13 01:23:42;;;;;;;6.90;3.80;;;20.20;99.90;;;;;;5011042;28;20212;-59
2021/09/13 01:26:08;;;;;;;4.40;4.00;;;20.20;99.90;;;;;;5006087;28;21210;-59
2021/09/13 01:28:34;;;;;;;4.83;4.43;;;20.20;99.90;;;;;;5009068;28;20440;-59
2021/09/13 01:31:01;;;;;;;4.37;3.97;;;20.10;99.90;;;;;;5007401;28;20964;-59
2021/09/13 01:33:26;;;;;;;4.30;3.83;;;20.10;99.90;;;;;;5006590;28;20189;-59
2021/09/13 01:35:52;;;;;;;5.07;4.43;;;20.00;99.90;;;;;;5007446;28;20858;-59
2021/09/13 01:38:22;;;;;;;4.33;3.93;;;19.90;99.90;;;;;;5007626;28;20568;-62
2021/09/13 01:40:53;;;;;;;5.40;4.50;;;19.90;99.90;;;;;;5009511;28;20189;-63
2021/09/13 01:43:20;;;;;;;4.57;4.10;;;20.00;99.90;;;;;;5008100;28;20470;-58
2021/09/13 01:45:45;;;;;;;4.77;4.10;;;20.00;99.90;;;;;;5005938;28;20439;-58
2021/09/13 01:48:11;;;;;;;4.43;4.03;;;20.00;99.90;;;;;;5006868;28;21844;-58
2021/09/13 01:50:37;;;;;;;5.23;4.73;;;20.10;99.90;;;;;;5008711;28;20177;-58
2021/09/13 01:53:02;;;;;;;5.00;4.47;;;20.10;99.90;;;;;;5006772;28;20245;-58
2021/09/13 01:55:28;;;;;;;5.50;5.00;;;20.10;99.90;;;;;;5009917;28;20193;-58
2021/09/13 01:57:54;;;;;;;4.73;4.23;;;20.00;99.90;;;;;;5005546;28;20322;-58
2021/09/13 02:00:19;;;;;;;4.97;4.17;;;19.90;99.90;;;;;;5007259;28;20567;-58
2021/09/13 02:02:45;;;;;;;8.10;5.43;;;19.80;99.90;;;;;;5008395;28;20177;-58
2021/09/13 02:05:11;;;;;;;6.87;5.30;;;19.60;99.90;;;;;;5005937;28;20193;-57
2021/09/13 02:07:37;;;;;;;4.37;4.00;;;19.70;99.90;;;;;;5004659;28;20201;-58
2021/09/13 02:10:04;;;;;;;6.43;4.40;;;19.80;99.90;;;;;;5007108;28;20185;-58
2021/09/13 02:12:30;;;;;;;4.27;3.87;;;19.80;99.90;;;;;;5005144;28;20185;-57
2021/09/13 02:14:56;;;;;;;4.03;3.73;;;19.80;99.90;;;;;;5007704;28;20519;-62
2021/09/13 02:17:22;;;;;;;3.90;3.50;;;19.90;99.90;;;;;;5008503;28;20970;-62
2021/09/13 02:19:48;;;;;;;4.33;3.93;;;19.80;99.90;;;;;;5006005;28;20193;-62
2021/09/13 02:22:14;;;;;;;4.53;3.87;;;19.80;99.90;;;;;;5007087;28;20185;-62
2021/09/13 02:24:40;;;;;;;7.67;4.07;;;19.90;99.90;;;;;;5007158;28;20495;-62
2021/09/13 02:27:06;;;;;;;5.30;4.13;;;19.80;99.90;;;;;;5004304;28;20562;-62
2021/09/13 02:29:31;;;;;;;6.03;5.37;;;19.70;99.90;;;;;;5008232;28;20189;-62
2021/09/13 02:31:57;;;;;;;4.37;4.00;;;19.60;99.90;;;;;;5006805;28;20235;-62
2021/09/13 02:34:22;;;;;;;7.43;4.60;;;19.60;99.90;;;;;;5006420;28;20319;-62
2021/09/13 02:36:48;;;;;;;5.47;4.97;;;19.60;99.90;;;;;;5008555;28;20236;-62
2021/09/13 02:39:14;;;;;;;5.20;4.70;;;19.60;99.90;;;;;;5005776;28;20197;-62
2021/09/13 02:41:40;;;;;;;5.70;5.10;;;19.60;99.90;;;;;;5005652;28;20193;-63
2021/09/13 02:44:06;;;;;;;5.23;4.50;;;19.70;99.90;;;;;;5005059;28;20330;-63
2021/09/13 02:46:32;;;;;;;5.57;4.93;;;19.70;99.90;;;;;;5006574;28;20554;-62
2021/09/13 02:48:57;;;;;;;5.70;5.20;;;19.60;99.90;;;;;;5007916;28;20208;-62
2021/09/13 02:51:23;;;;;;;5.90;5.23;;;19.50;99.90;;;;;;5006643;28;20199;-63
2021/09/13 02:53:48;;;;;;;6.43;5.47;;;19.40;99.90;;;;;;5006169;28;20260;-62
2021/09/13 02:56:14;;;;;;;6.10;5.50;;;19.40;99.90;;;;;;5008049;28;20209;-62
2021/09/13 02:58:40;;;;;;;9.70;5.97;;;19.30;99.90;;;;;;5005642;28;20210;-63
2021/09/13 03:01:06;;;;;;;6.20;5.60;;;19.10;99.90;;;;;;5008318;28;20206;-62
2021/09/13 03:03:31;;;;;;;5.20;4.70;;;19.30;99.90;;;;;;5007485;28;20621;-62
2021/09/13 03:05:57;;;;;;;6.27;5.03;;;19.40;99.90;;;;;;5005681;28;20699;-62
2021/09/13 03:08:22;;;;;;;5.57;5.07;;;19.40;99.90;;;;;;5000543;28;20221;-62
2021/09/13 03:10:48;;;;;;;5.33;4.83;;;19.30;99.90;;;;;;5004841;28;20197;-58
2021/09/13 03:13:14;;;;;;;5.17;4.67;;;19.30;99.90;;;;;;5004694;28;20609;-58
2021/09/13 03:15:40;;;;;;;5.80;5.30;;;19.30;99.90;;;;;;5007444;28;20189;-58
2021/09/13 03:18:06;;;;;;;6.17;4.67;;;19.20;99.90;;;;;;5004745;28;20520;-58
2021/09/13 03:20:31;;;;;;;6.43;4.60;;;19.20;99.90;;;;;;5006269;28;20186;-62
2021/09/13 03:22:57;;;;;;;4.00;3.70;;;19.30;99.90;;;;;;5005768;28;20196;-62
2021/09/13 03:25:24;;;;;;;6.83;5.63;;;19.30;99.90;;;;;;5006103;28;20987;-62
2021/09/13 03:27:50;;;;;;;5.53;4.97;;;19.10;99.90;;;;;;5006556;28;20531;-62
2021/09/13 03:30:16;;;;;;;4.90;4.50;;;19.00;99.90;;;;;;5007932;28;20432;-62
2021/09/13 03:32:42;;;;;;;5.13;4.63;;;18.80;99.90;;;;;;5006359;28;20564;-63
2021/09/13 03:35:09;;;;;;;5.23;4.27;;;19.00;99.90;;;;;;5005021;28;20440;-62
2021/09/13 03:37:35;;;;;;;4.63;4.23;;;19.00;99.90;;;;;;5009348;28;20208;-63
2021/09/13 03:40:01;;;;;;;6.30;4.57;;;19.10;99.90;;;;;;5005835;28;20845;-62
2021/09/13 03:42:27;;;;;;;5.43;4.93;;;19.10;99.90;;;;;;5007784;28;20561;-62
2021/09/13 03:44:53;;;;;;;4.93;4.07;;;19.00;99.90;;;;;;5005653;28;20474;-62
2021/09/13 03:47:18;;;;;;;4.93;4.43;;;18.80;99.90;;;;;;5004423;28;20204;-62
2021/09/13 03:49:44;;;;;;;5.00;4.53;;;18.70;99.90;;;;;;5012602;28;20439;-58
2021/09/13 03:52:09;;;;;;;5.07;4.67;;;18.60;99.90;;;;;;5006035;28;20251;-58
2021/09/13 03:54:36;;;;;;;7.00;4.77;;;18.70;99.90;;;;;;5004640;28;20193;-63
2021/09/13 03:57:02;;;;;;;5.07;4.67;;;18.70;99.90;;;;;;5006786;28;20205;-62
2021/09/13 03:59:28;;;;;;;5.13;4.20;;;18.60;99.90;;;;;;5006307;28;20432;-62
2021/09/13 04:01:54;;;;;;;5.77;5.27;;;18.70;99.90;;;;;;5005097;28;20674;-63
2021/09/13 04:04:22;;;;;;;5.57;4.47;;;18.60;99.90;;;;;;5005713;28;20743;-63
2021/09/13 04:06:51;;;;;;;5.60;4.67;;;18.60;99.90;;;;;;5003092;28;20213;-62
2021/09/13 04:11:58;;;;;;;6.73;4.43;;;18.60;99.90;;;;;;5006006;28;20443;-63
2021/09/13 04:14:28;;;;;;;9.20;4.80;;;18.60;99.90;;;;;;5010019;28;20439;-62
2021/09/13 04:16:55;;;;;;;14.20;5.57;;;18.40;99.90;;;;;;5009016;28;20444;-62
2021/09/13 04:19:22;;;;;;;5.83;4.83;;;18.40;99.90;;;;;;5007749;28;20434;-62
2021/09/13 04:21:49;;;;;;;4.87;4.40;;;18.40;99.90;;;;;;5009552;28;20428;-63
2021/09/13 04:24:14;;;;;;;5.77;5.10;;;18.40;99.90;;;;;;5012555;28;20462;-59
2021/09/13 04:26:40;;;;;;;4.97;4.40;;;18.50;99.90;;;;;;5011600;28;20808;-58
2021/09/13 04:29:07;;;;;;;6.23;4.90;;;18.40;99.90;;;;;;5011057;28;20191;-58
2021/09/13 04:31:33;;;;;;;5.43;4.60;;;18.50;99.90;;;;;;5011131;28;20427;-58
2021/09/13 04:33:58;;;;;;;6.00;4.63;;;18.30;99.90;;;;;;5007387;28;20542;-58
2021/09/13 04:36:24;;;;;;;4.37;3.97;;;18.30;99.90;;;;;;5010377;28;20558;-58
2021/09/13 04:38:50;;;;;;;5.43;4.93;;;18.30;99.90;;;;;;5008616;28;20515;-58
2021/09/13 04:41:16;;;;;;;7.20;5.27;;;18.20;99.90;;;;;;5011281;28;20189;-59
2021/09/13 04:43:42;;;;;;;4.90;4.50;;;18.30;99.90;;;;;;5011167;28;20593;-63
2021/09/13 04:46:08;;;;;;;7.13;5.40;;;18.30;99.90;;;;;;5008761;28;20452;-59
2021/09/13 04:48:33;;;;;;;7.17;5.27;;;18.20;99.90;;;;;;5010670;28;20193;-59
2021/09/13 04:50:59;;;;;;;5.57;5.07;;;18.30;99.90;;;;;;5011112;28;20192;-59
2021/09/13 04:53:24;;;;;;;5.87;5.30;;;18.10;99.90;;;;;;5008705;28;20193;-59
2021/09/13 04:55:50;;;;;;;5.23;4.70;;;18.20;99.90;;;;;;5010447;28;20716;-59
2021/09/13 04:58:16;;;;;;;5.23;4.77;;;18.10;99.90;;;;;;5024455;28;20287;-59
2021/09/13 05:00:41;;;;;;;5.27;4.77;;;18.10;99.90;;;;;;5007936;28;20197;-59
2021/09/13 05:03:07;;;;;;;7.60;4.80;;;18.30;99.90;;;;;;5009111;28;20578;-59
2021/09/13 05:05:33;;;;;;;6.43;5.83;;;18.30;99.90;;;;;;5006347;28;20666;-59
2021/09/13 05:07:59;;;;;;;5.60;5.10;;;18.30;99.90;;;;;;5009423;28;20213;-59
2021/09/13 05:10:24;;;;;;;7.43;5.20;;;18.20;99.90;;;;;;5010484;28;20189;-58
2021/09/13 05:12:51;;;;;;;6.93;6.20;;;18.20;99.90;;;;;;5009937;28;20346;-58
2021/09/13 05:15:16;;;;;;;5.93;5.33;;;18.20;99.90;;;;;;5008032;28;20189;-58
2021/09/13 05:17:42;;;;;;;6.53;5.93;;;18.00;99.90;;;;;;5009800;28;20448;-57
2021/09/13 05:20:09;;;;;;;6.50;5.80;;;17.90;99.90;;;;;;5007202;28;20523;-58
2021/09/13 05:22:34;;;;;;;5.90;5.40;;;17.90;99.90;;;;;;5009192;28;20632;-58
2021/09/13 05:25:00;;;;;;;6.33;5.83;;;17.90;99.90;;;;;;5006254;28;20517;-58
2021/09/13 05:27:26;;;;;;;6.50;5.90;;;17.80;99.90;;;;;;5006611;28;20201;-58
2021/09/13 05:29:51;;;;;;;6.10;5.60;;;17.80;99.90;;;;;;5010323;28;20648;-58
2021/09/13 05:32:17;;;;;;;6.73;5.00;;;17.80;99.90;;;;;;5005855;28;20190;-58
2021/09/13 05:34:43;;;;;;;6.70;6.10;;;17.50;99.90;;;;;;5007875;28;20201;-59
2021/09/13 05:37:08;;;;;;;7.40;6.00;;;17.60;99.90;;;;;;5008765;28;20209;-59
2021/09/13 05:39:35;;;;;;;8.20;6.33;;;17.50;99.90;;;;;;5008461;28;20331;-59
2021/09/13 05:42:01;;;;;;;6.47;5.90;;;17.60;99.90;;;;;;5008392;28;20192;-58
2021/09/13 05:44:26;;;;;;;9.27;5.80;;;17.60;99.90;;;;;;5009484;28;20459;-58
2021/09/13 05:46:52;;;;;;;7.00;6.30;;;17.70;99.90;;;;;;5006898;28;20482;-58
2021/09/13 05:49:18;;;;;;;6.73;6.07;;;17.70;99.90;;;;;;5008202;28;20201;-63
2021/09/13 05:51:50;;;;;;;7.40;6.80;;;17.70;99.90;;;;;;5008920;28;20231;-63
2021/09/13 05:54:22;;;;;;;7.50;6.53;;;17.60;99.90;;;;;;5007564;28;20232;-63
2021/09/13 05:56:50;;;;;;;5.90;5.40;;;17.70;99.90;;;;;;5007772;28;20479;-64
2021/09/13 05:59:16;;;;;;;8.90;8.10;;;17.70;99.90;;;;;;5008116;28;21053;-64
2021/09/13 06:01:42;;;;;;;7.23;6.53;;;17.60;99.90;;;;;;5006712;28;20428;-63
2021/09/13 06:04:08;;;;;;;7.77;7.07;;;17.60;99.90;;;;;;5008060;28;21004;-63
2021/09/13 06:06:33;;;;;;;8.03;6.60;;;17.50;99.90;;;;;;5006956;28;21004;-63
2021/09/13 06:08:59;;;;;;;7.20;6.50;;;17.50;99.90;;;;;;5007091;28;20340;-63
2021/09/13 06:11:27;;;;;;;7.83;7.03;;;17.50;99.90;;;;;;5013248;28;20188;-58
2021/09/13 06:13:53;;;;;;;7.90;7.10;;;17.50;99.90;;;;;;5005717;28;20753;-59
2021/09/13 06:16:19;;;;;;;7.43;6.73;;;17.70;99.90;;;;;;5002406;28;20472;-58
2021/09/13 06:18:45;;;;;;;9.23;7.13;;;17.70;99.90;;;;;;5001151;28;20447;-59
2021/09/13 06:21:10;;;;;;;9.47;8.43;;;17.70;99.90;;;;;;5006325;28;20502;-59
2021/09/13 06:23:36;;;;;;;7.97;7.23;;;17.80;99.90;;;;;;5007200;28;20346;-63
2021/09/13 06:26:02;;;;;;;9.07;6.97;;;17.80;99.90;;;;;;5001653;28;20197;-63
2021/09/13 06:28:28;;;;;;;8.57;6.57;;;17.90;99.90;;;;;;5003857;28;20198;-63
2021/09/13 06:30:54;;;;;;;8.40;7.60;;;17.80;99.90;;;;;;5006398;28;20910;-63
2021/09/13 06:33:20;;;;;;;14.37;9.57;;;17.80;99.90;;;;;;5001866;28;20633;-58
2021/09/13 06:35:45;;;;;;;7.77;6.70;;;17.90;99.90;;;;;;5002152;28;20242;-62
2021/09/13 06:38:11;;;;;;;11.33;8.17;;;17.90;99.90;;;;;;5004830;28;20220;-62
2021/09/13 06:40:37;;;;;;;7.10;6.40;;;18.00;99.90;;;;;;5002508;28;20660;-57
2021/09/13 06:43:03;;;;;;;10.80;7.23;;;18.20;99.90;;;;;;5005185;28;20439;-57
2021/09/13 06:45:29;;;;;;;8.53;7.73;;;18.00;99.90;;;;;;5005693;28;20185;-58
2021/09/13 06:47:54;;;;;;;11.57;6.80;;;18.10;99.90;;;;;;5005548;28;20368;-58
2021/09/13 06:50:28;;;;;;;10.10;8.53;;;18.00;99.90;;;;;;5006221;28;20504;-58
2021/09/13 06:52:55;;;;;;;10.23;8.23;;;18.10;99.90;;;;;;5003241;28;20287;-57
2021/09/13 06:55:21;;;;;;;9.73;6.30;;;18.10;99.90;;;;;;5004702;28;20832;-59
2021/09/13 06:57:48;;;;;;;9.63;7.27;;;18.20;99.90;;;;;;5002836;28;20454;-58
2021/09/13 07:00:16;;;;;;;8.30;7.27;;;18.00;99.90;;;;;;5003495;28;20446;-61
2021/09/13 07:02:44;;;;;;;10.83;7.43;;;18.10;99.90;;;;;;5004877;28;20428;-62
2021/09/13 07:05:11;;;;;;;8.90;7.03;;;18.20;99.90;;;;;;5003505;28;20467;-62
2021/09/13 07:07:37;;;;;;;9.33;7.00;;;18.20;99.90;;;;;;5006013;28;20459;-60
2021/09/13 07:10:05;;;;;;;7.23;6.37;;;18.20;99.90;;;;;;5022047;28;20460;-62
2021/09/13 07:12:30;;;;;;;7.60;6.90;;;18.30;99.90;;;;;;5007936;28;20432;-58
2021/09/13 07:14:56;;;;;;;8.23;7.07;;;18.40;99.90;;;;;;5005724;28;20496;-59
2021/09/13 07:17:21;;;;;;;9.87;8.00;;;18.50;99.90;;;;;;5011085;28;20224;-59
2021/09/13 07:19:47;;;;;;;8.80;7.90;;;18.50;99.90;;;;;;5006285;28;20264;-59
2021/09/13 07:22:13;;;;;;;9.47;7.23;;;18.50;99.90;;;;;;5007436;28;20193;-58
2021/09/13 07:24:43;;;;;;;8.23;6.17;;;18.50;99.90;;;;;;5004540;28;20217;-62
2021/09/13 07:27:09;;;;;;;8.17;7.27;;;18.50;99.90;;;;;;5006434;28;20456;-62
2021/09/13 07:29:35;;;;;;;8.27;6.60;;;18.50;99.90;;;;;;5007014;28;20436;-62
2021/09/13 07:32:02;;;;;;;9.23;6.53;;;18.50;99.90;;;;;;5006476;28;20432;-58
2021/09/13 07:34:28;;;;;;;7.50;6.47;;;18.50;99.90;;;;;;4997987;28;20228;-62
2021/09/13 07:36:57;;;;;;;9.60;8.00;;;18.50;99.90;;;;;;5007459;28;20502;-63
2021/09/13 07:39:25;;;;;;;7.60;6.90;;;18.60;99.90;;;;;;5004038;28;20436;-63
2021/09/13 07:41:51;;;;;;;10.20;8.77;;;18.70;99.90;;;;;;5003261;28;20876;-62
2021/09/13 07:44:16;;;;;;;9.30;7.60;;;18.70;99.90;;;;;;5005642;28;20502;-63
2021/09/13 07:46:42;;;;;;;8.30;7.50;;;18.70;99.90;;;;;;5004101;28;20228;-59
2021/09/13 07:49:09;;;;;;;9.93;6.70;;;18.80;99.90;;;;;;5003809;28;20228;-59
2021/09/13 07:51:35;;;;;;;7.67;6.80;;;18.90;99.90;;;;;;5005177;28;20434;-59
2021/09/13 07:54:00;;;;;;;15.03;10.03;;;19.00;99.90;;;;;;5001601;28;20802;-59
2021/09/13 07:56:26;;;;;;;11.63;9.37;;;18.90;99.90;;;;;;5006083;28;20220;-59
2021/09/13 07:58:52;;;;;;;9.83;7.90;;;19.00;99.90;;;;;;5006488;28;20884;-59
2021/09/13 08:01:17;;;;;;;8.67;7.87;;;19.00;99.90;;;;;;5006975;28;20201;-62
2021/09/13 08:03:43;;;;;;;11.17;9.23;;;19.00;99.90;;;;;;5005582;28;20220;-62
2021/09/13 08:06:10;;;;;;;8.20;6.67;;;19.10;99.90;;;;;;5004282;28;20430;-59
2021/09/13 08:08:36;;;;;;;9.20;7.10;;;19.20;99.90;;;;;;5019088;28;20482;-58
2021/09/13 08:11:02;;;;;;;13.87;6.37;;;19.20;99.90;;;;;;5004774;28;20212;-60
2021/09/13 08:13:28;;;;;;;9.40;7.83;;;19.20;99.90;;;;;;5002541;28;20452;-59
2021/09/13 08:15:54;;;;;;;7.80;6.40;;;19.10;99.90;;;;;;4996672;28;20447;-59
2021/09/13 08:18:20;;;;;;;9.97;7.93;;;19.30;99.90;;;;;;5001138;28;20857;-59
2021/09/13 08:20:45;;;;;;;7.20;6.33;;;19.40;99.90;;;;;;5003181;28;20452;-60
2021/09/13 08:23:11;;;;;;;7.53;6.80;;;19.50;99.90;;;;;;5004593;28;20216;-59
2021/09/13 08:25:37;;;;;;;11.10;8.90;;;19.50;99.90;;;;;;5005419;28;20184;-59
2021/09/13 08:28:02;;;;;;;8.77;7.20;;;19.50;99.90;;;;;;5005692;28;20209;-58
2021/09/13 08:30:28;;;;;;;7.47;6.67;;;19.40;99.90;;;;;;5003858;28;20192;-59
2021/09/13 08:32:54;;;;;;;7.40;6.73;;;19.60;99.90;;;;;;5004725;28;20263;-57
2021/09/13 08:35:20;;;;;;;7.87;7.13;;;19.70;99.90;;;;;;5002901;28;20198;-58
2021/09/13 08:37:46;;;;;;;7.47;6.53;;;19.70;99.90;;;;;;5006809;28;20637;-61
2021/09/13 08:40:12;;;;;;;7.67;6.87;;;19.70;99.90;;;;;;5007205;28;20181;-62
2021/09/13 08:42:47;;;;;;;7.20;6.50;;;19.80;99.90;;;;;;5005138;28;20438;-62
2021/09/13 08:45:17;;;;;;;9.43;7.00;;;19.90;99.90;;;;;;5007826;28;20474;-58
2021/09/13 08:53:04;;;;;;;6.73;6.13;;;20.00;99.90;;;;;;5005330;28;20487;-62
2021/09/13 08:55:30;;;;;;;7.07;5.80;;;20.10;99.90;;;;;;5003357;28;20339;-58
2021/09/13 08:57:58;;;;;;;7.50;6.80;;;20.00;99.90;;;;;;5003953;28;20958;-59
2021/09/13 09:00:24;;;;;;;6.20;5.37;;;20.10;99.90;;;;;;5005215;28;20590;-59
2021/09/13 09:02:51;;;;;;;6.43;5.10;;;20.20;99.90;;;;;;5002862;28;20447;-58
2021/09/13 09:05:17;;;;;;;6.07;5.43;;;20.30;99.90;;;;;;5006493;28;20504;-61
2021/09/13 09:07:55;;;;;;;10.53;9.63;;;20.20;99.90;;;;;;5008804;28;20511;-57
2021/09/13 09:10:23;;;;;;;10.97;9.87;;;20.30;99.90;;;;;;4997596;28;20320;-57
2021/09/13 09:13:10;;;;;;;6.63;5.93;;;20.50;99.90;;;;;;5008716;28;20446;-57
2021/09/13 09:15:56;;;;;;;6.60;5.90;;;20.60;99.90;;;;;;5004233;28;20876;-61
2021/09/13 09:18:38;;;;;;;5.80;4.60;;;20.70;99.90;;;;;;5007048;28;20502;-62
2021/09/13 09:21:04;;;;;;;5.93;5.40;;;20.80;99.90;;;;;;5006911;28;20860;-62
2021/09/13 09:23:30;;;;;;;6.80;4.90;;;20.90;99.90;;;;;;5008636;28;20832;-63
2021/09/13 09:26:11;;;;;;;12.37;5.87;;;20.90;99.90;;;;;;5005237;28;20433;-59
2021/09/13 09:28:37;;;;;;;5.97;4.70;;;21.10;99.90;;;;;;5007725;28;20232;-59
2021/09/13 09:31:02;;;;;;;4.80;4.27;;;21.10;99.90;;;;;;5007542;28;20448;-64
2021/09/13 09:33:28;;;;;;;6.60;4.80;;;21.10;99.90;;;;;;5005972;28;20704;-63
2021/09/13 09:35:56;;;;;;;5.93;4.10;;;21.20;99.90;;;;;;5022352;28;20185;-62
2021/09/13 09:38:42;;;;;;;5.10;4.70;;;21.30;99.90;;;;;;5022522;28;20852;-61
2021/09/13 09:41:14;;;;;;;5.13;4.20;;;21.30;99.90;;;;;;5022005;28;20767;-62
2021/09/13 09:44:00;;;;;;;5.33;3.80;;;21.30;99.90;;;;;;5003505;28;20459;-58
2021/09/13 09:46:47;;;;;;;5.80;4.07;;;21.40;99.90;;;;;;5006739;28;20488;-59
2021/09/13 09:49:15;;;;;;;4.27;3.87;;;21.40;99.90;;;;;;5006963;28;20551;-58
2021/09/13 09:51:43;;;;;;;7.07;3.70;;;21.60;99.90;;;;;;5008194;28;20438;-58
2021/09/13 09:54:13;;;;;;;5.50;4.00;;;21.60;99.90;;;;;;5007099;28;20424;-63
2021/09/13 09:56:40;;;;;;;4.87;3.97;;;21.80;99.90;;;;;;5007067;28;20459;-63
2021/09/13 09:59:09;;;;;;;5.00;3.90;;;21.80;99.90;;;;;;5005850;28;20554;-63
2021/09/13 10:01:42;;;;;;;8.30;4.37;;;21.80;99.90;;;;;;5005057;28;20433;-59
2021/09/13 10:04:22;;;;;;;4.33;3.40;;;21.90;99.90;;;;;;5005774;28;20568;-59
2021/09/13 10:06:56;;;;;;;5.43;3.90;;;22.00;99.90;;;;;;5005287;28;20494;-59
2021/09/13 10:09:23;;;;;;;3.90;3.50;;;22.10;99.90;;;;;;5007343;28;20471;-59
2021/09/13 10:11:52;;;;;;;9.67;4.40;;;22.20;99.90;;;;;;5006305;28;20824;-59
2021/09/13 10:14:21;;;;;;;4.10;3.70;;;22.20;99.90;;;;;;5007092;28;20448;-59
2021/09/13 10:16:48;;;;;;;5.17;4.03;;;22.20;99.90;;;;;;5003737;28;20470;-59
2021/09/13 10:19:14;;;;;;;4.23;3.80;;;22.30;99.90;;;;;;5005106;28;20436;-63
2021/09/13 10:21:41;;;;;;;4.50;4.10;;;22.40;99.90;;;;;;5007716;28;20797;-63
2021/09/13 10:24:19;;;;;;;4.20;3.73;;;22.40;99.90;;;;;;5007116;28;20497;-59
2021/09/13 10:26:58;;;;;;;4.80;3.97;;;22.50;99.90;;;;;;5009204;28;20468;-59
2021/09/13 10:29:28;;;;;;;5.00;4.50;;;22.60;99.90;;;;;;5007231;28;20432;-59
2021/09/13 10:31:57;;;;;;;4.53;4.20;;;22.70;99.90;;;;;;5005873;28;21030;-59
2021/09/13 10:34:35;;;;;;;4.93;4.10;;;22.70;99.90;;;;;;5007765;28;20440;-59
2021/09/13 10:37:10;;;;;;;4.23;3.83;;;22.70;99.90;;;;;;5007359;28;20969;-59
2021/09/13 10:40:13;;;;;;;9.77;4.80;;;22.90;99.90;;;;;;5007757;28;20481;-59
2021/09/13 10:42:57;;;;;;;7.13;4.70;;;23.00;99.90;;;;;;5008536;28;20944;-59
2021/09/13 10:45:28;;;;;;;4.63;4.23;;;23.10;99.90;;;;;;5005832;28;20534;-59
2021/09/13 10:47:59;;;;;;;4.70;4.30;;;23.20;99.90;;;;;;5004420;28;20487;-59
2021/09/13 10:50:35;;;;;;;7.53;5.47;;;23.30;99.90;;;;;;5003863;28;20943;-59
2021/09/13 10:53:04;;;;;;;8.30;5.73;;;23.30;99.90;;;;;;5008173;28;20412;-62
2021/09/13 10:55:41;;;;;;;4.40;4.00;;;23.40;99.90;;;;;;5006914;28;20432;-62
2021/09/13 10:58:11;;;;;;;7.77;7.07;;;23.40;99.90;;;;;;5008573;28;20444;-62
2021/09/13 11:00:40;;;;;;;9.73;6.47;;;23.40;99.90;;;;;;5007166;28;20942;-62
2021/09/13 11:03:26;;;;;;;4.10;3.80;;;23.50;99.90;;;;;;5006123;28;20428;-63
2021/09/13 11:06:11;;;;;;;6.07;4.30;;;23.50;99.90;;;;;;5010416;28;20491;-59
2021/09/13 11:08:42;;;;;;;5.53;4.00;;;23.50;99.90;;;;;;5007839;28;20455;-59
2021/09/13 11:11:16;;;;;;;3.83;3.50;;;23.50;99.90;;;;;;5004960;28;20873;-59
2021/09/13 11:13:44;;;;;;;6.10;4.40;;;23.60;99.90;;;;;;5005341;28;20436;-59
2021/09/13 11:16:15;;;;;;;4.43;4.03;;;23.70;99.90;;;;;;5007047;28;20488;-59
2021/09/13 11:18:42;;;;;;;7.70;3.90;;;23.80;99.90;;;;;;5006911;28;20446;-59
2021/09/13 11:21:20;;;;;;;5.63;4.00;;;24.00;99.90;;;;;;5008694;28;20997;-59
2021/09/13 11:23:56;;;;;;;4.97;4.47;;;24.10;99.90;;;;;;5009849;28;20872;-63
2021/09/13 11:26:35;;;;;;;4.27;3.97;;;24.10;99.90;;;;;;5008319;28;21457;-59
2021/09/13 11:29:05;;;;;;;5.17;4.70;;;24.20;99.90;;;;;;5008532;28;20424;-59
2021/09/13 11:31:41;;;;;;;4.40;4.00;;;24.30;99.90;;;;;;5006763;28;20447;-62
2021/09/13 11:34:13;;;;;;;4.90;4.10;;;24.30;99.90;;;;;;5007009;28;20472;-59
2021/09/13 11:36:49;;;;;;;5.20;4.43;;;24.50;99.90;;;;;;5007527;28;25184;-59
2021/09/13 11:39:15;;;;;;;4.50;3.70;;;24.60;99.90;;;;;;5005895;28;20815;-59
2021/09/13 11:41:51;;;;;;;4.80;4.40;;;24.80;99.90;;;;;;5006574;28;20437;-59
2021/09/13 11:44:17;;;;;;;5.50;4.30;;;24.80;99.90;;;;;;5007121;28;20475;-59
2021/09/13 11:46:52;;;;;;;4.10;3.80;;;25.00;99.90;;;;;;5005882;28;20486;-63
2021/09/13 11:49:26;;;;;;;6.43;4.00;;;25.10;99.90;;;;;;5003663;28;20203;-63
2021/09/13 11:52:06;;;;;;;4.00;3.60;;;25.10;99.90;;;;;;5005353;28;20964;-63
2021/09/13 11:54:44;;;;;;;4.97;3.37;;;25.30;99.90;;;;;;5007491;28;20428;-63
2021/09/13 11:57:45;;;;;;;3.97;3.50;;;25.90;99.90;;;;;;5006459;28;20481;-63
2021/09/13 12:00:22;;;;;;;4.40;4.00;;;26.10;99.90;;;;;;4997790;28;20539;-59
2021/09/13 12:03:00;;;;;;;6.87;3.67;;;26.50;99.90;;;;;;5005909;28;20934;-59
2021/09/13 12:05:36;;;;;;;4.40;4.00;;;26.90;99.90;;;;;;5006552;28;20837;-59
2021/09/13 12:08:05;;;;;;;4.50;4.10;;;27.50;99.90;;;;;;5005233;28;20858;-60
2021/09/13 12:10:34;;;;;;;4.57;3.53;;;28.00;99.90;;;;;;5018687;28;20819;-60
2021/09/13 12:13:13;;;;;;;4.60;4.20;;;28.60;99.90;;;;;;5006690;28;20486;-59
2021/09/13 12:15:39;;;;;;;4.00;3.70;;;29.00;99.90;;;;;;5005313;28;21024;-62
2021/09/13 12:18:08;;;;;;;4.97;4.30;;;29.20;99.90;;;;;;5007498;28;20886;-62
2021/09/13 12:20:42;;;;;;;3.93;3.47;;;29.40;99.90;;;;;;5005106;28;20444;-61
2021/09/13 12:23:19;;;;;;;5.13;3.83;;;29.50;99.90;;;;;;5004166;28;20459;-61
2021/09/13 12:25:49;;;;;;;4.33;3.93;;;29.70;99.90;;;;;;5005876;28;20426;-61
2021/09/13 12:28:26;;;;;;;4.67;4.27;;;29.70;99.90;;;;;;5002040;28;20432;-61
2021/09/13 12:31:01;;;;;;;4.13;3.73;;;29.80;99.90;;;;;;5005560;28;20442;-60
2021/09/13 12:33:44;;;;;;;4.47;4.07;;;30.00;99.90;;;;;;5005303;28;20816;-63
2021/09/13 12:36:24;;;;;;;5.10;3.80;;;30.20;99.90;;;;;;5004655;28;20482;-63
2021/09/13 12:38:57;;;;;;;4.20;3.80;;;30.20;99.90;;;;;;5003658;28;20435;-63
2021/09/13 12:41:31;;;;;;;3.53;3.23;;;30.30;99.90;;;;;;5006992;28;20471;-63
2021/09/13 12:43:57;;;;;;;7.00;3.87;;;30.20;99.90;;;;;;5008664;28;20981;-63
2021/09/13 12:46:23;;;;;;;5.33;4.83;;;30.10;99.90;;;;;;5007693;28;20466;-63
2021/09/13 12:48:50;;;;;;;7.27;3.93;;;30.20;99.90;;;;;;5009394;28;20204;-63
2021/09/13 12:51:21;;;;;;;5.23;4.83;;;30.10;99.90;;;;;;5008755;28;20201;-63
2021/09/13 12:53:59;;;;;;;6.97;4.20;;;30.10;99.90;;;;;;5009718;28;20451;-63
2021/09/13 12:56:25;;;;;;;4.30;3.60;;;30.40;99.90;;;;;;5008229;28;20455;-62
2021/09/13 12:58:54;;;;;;;3.93;3.63;;;30.30;99.90;;;;;;5008572;28;20503;-63